Hartford, SD (57033)

11:59 PM CST on November 22, 2014 (GMT -0600)
SW Crooks | Change Station
CLOSE
Current Station
Personal Weather Station
Location: Crooks, SD
Elevation: 1552 ft
Nearby Weather Stations

Elev 1552 ft 43.65 °N, 96.82 °W | Updated 4 seconds ago

Overcast
Overcast
39.7 °F
Feels Like 36 °F
N
4.9
Wind Variable Wind from SSW
Gusts 4.9 mph

Today
High -- | Low -- °F
--% Chance of Precip.
Yesterday
High -- | Low -- °F
Precip. -- in
7:30 AM 4:56 PM
New Moon, 1% visible
Pressure 29.49 in
Visibility 10.0 miles
Clouds Mostly Cloudy 13000 ft
Overcast 25000 ft
Windchill 36 °F
Dew Point 36 °F
Humidity 88%
Rainfall 0.00 in
Snow Depth Not available.
UV 0 out of 12
Pollen .10 out of 12
Air Quality Not available.
Flu Activity Not available.
METAR KFSD 230456Z 20009KT 10SM BKN130 OVC250 06/03 A2945 RMK AO2 SLP984 T00610033

More Conditions Fewer Conditions

Pressure 29.49 in
Visibility 10.0 miles
Clouds Mostly Cloudy 13000 ft
Overcast 25000 ft
Windchill 36 °F
Dew Point 36 °F
Humidity 88%
Rainfall 0.00 in
Snow Depth Not available.
UV 0 out of 12
Pollen .10 out of 12
Air Quality Not available.
Flu Activity Not available.
METAR KFSD 230456Z 20009KT 10SM BKN130 OVC250 06/03 A2945 RMK AO2 SLP984 T00610033

More Conditions Fewer Conditions

10-Day Weather Forecast

Almanac

Astronomy

Nov. 22, 2014 Rise Set
Actual Time
Civil Twilight
Nautical Twilight
Astronomical Twilight
Moon
Length of Visible Light
Length of Day
Tomorrow will be .
, % of the Moon is Illuminated

Today's Extremes

State Highs State Lows

Community

WunderPhotos

Upload Photos

1,773,017 photos uploaded!

WunderBlogs® & News

Nearby

Air Quality

  Air Quality AQ Index Pollutant
Not available.

Snow Depth

Station Depth Elevation

Earthquake Activity

City Distance Mag. Time & Date
Minimum magnitude displayed is 2.5.

Coastal Water Temperatures

Place Temperature

Nearby Weather Stations